createdAt,value
2022-09-30T06:31:35.204Z,151.88
2022-09-30T06:36:33.556Z,157.50
2022-09-30T11:17:12.638Z,213.75
2022-09-30T11:22:12.505Z,219.38
2022-09-30T11:27:12.626Z,236.25
2022-09-30T11:32:12.851Z,236.25
2022-09-30T12:32:30.377Z,281.25
2022-09-30T12:57:20.811Z,331.88
2022-09-30T13:02:22.041Z,303.75
2022-09-30T13:07:20.155Z,258.75
2022-09-30T13:12:20.053Z,281.25
2022-09-30T13:17:19.569Z,337.50
2022-09-30T14:31:31.656Z,360.00
2022-09-30T14:43:50.017Z,348.75
2022-09-30T15:16:16.058Z,202.50
2022-09-30T15:33:47.856Z,129.38
2022-09-30T18:03:15.644Z,0.00
2022-09-30T18:08:11.342Z,0.00
2022-09-30T18:13:10.583Z,0.00
2022-09-30T18:20:17.894Z,0.00
2022-09-30T18:25:17.471Z,0.00
2022-09-30T18:39:10.063Z,0.00
2022-09-30T18:44:09.820Z,0.00
2022-09-30T18:49:10.185Z,0.00
2022-09-30T18:54:09.626Z,0.00
2022-09-30T19:03:14.338Z,0.00
2022-09-30T19:24:08.368Z,0.00
2022-09-30T19:29:07.799Z,0.00
2022-09-30T19:34:07.676Z,0.00
2022-09-30T19:39:11.905Z,0.00
2022-09-30T19:58:27.046Z,0.00
2022-09-30T20:03:26.864Z,0.00
2022-09-30T20:08:26.901Z,0.00
2022-09-30T20:13:26.712Z,0.00
2022-09-30T20:18:26.749Z,0.00
2022-09-30T20:23:26.491Z,0.00
2022-09-30T20:28:26.770Z,0.00
2022-09-30T20:33:26.399Z,0.00
2022-09-30T20:38:26.513Z,0.00
2022-09-30T20:43:27.666Z,0.00
2022-09-30T20:48:33.358Z,0.00
2022-09-30T20:53:26.258Z,0.00
2022-09-30T20:58:26.108Z,0.00
2022-09-30T22:59:16.083Z,0.00
2022-09-30T23:04:15.417Z,0.00
2022-09-30T23:09:15.342Z,0.00
2022-09-30T23:14:15.112Z,0.00
2022-09-30T23:19:15.139Z,0.00
2022-09-30T23:36:35.691Z,0.00
2022-09-30T23:41:35.693Z,0.00
2022-09-30T23:46:35.433Z,0.00
